sensor_id;sensor_type;location;lat;lon;timestamp;P1;durP1;ratioP1;P2;durP2;ratioP2
24157;SDS011;12316;50.904;4.200;2022-10-16T00:00:32;2.40;;;1.25;;
24157;SDS011;12316;50.904;4.200;2022-10-16T00:02:59;3.17;;;1.00;;
24157;SDS011;12316;50.904;4.200;2022-10-16T00:05:24;4.75;;;1.40;;
24157;SDS011;12316;50.904;4.200;2022-10-16T00:07:50;2.13;;;1.20;;
24157;SDS011;12316;50.904;4.200;2022-10-16T00:10:15;2.33;;;1.20;;
24157;SDS011;12316;50.904;4.200;2022-10-16T00:12:41;2.65;;;1.40;;
24157;SDS011;12316;50.904;4.200;2022-10-16T00:15:07;4.13;;;1.40;;
24157;SDS011;12316;50.904;4.200;2022-10-16T00:17:33;1.58;;;1.27;;
24157;SDS011;12316;50.904;4.200;2022-10-16T00:19:58;1.25;;;1.08;;
24157;SDS011;12316;50.904;4.200;2022-10-16T00:22:24;1.50;;;1.40;;
24157;SDS011;12316;50.904;4.200;2022-10-16T00:24:49;3.38;;;1.40;;
24157;SDS011;12316;50.904;4.200;2022-10-16T00:27:15;3.05;;;1.40;;
24157;SDS011;12316;50.904;4.200;2022-10-16T00:29:41;2.38;;;1.50;;
24157;SDS011;12316;50.904;4.200;2022-10-16T00:32:07;2.03;;;1.20;;
24157;SDS011;12316;50.904;4.200;2022-10-16T00:34:33;4.43;;;1.40;;
24157;SDS011;12316;50.904;4.200;2022-10-16T00:36:59;3.30;;;1.52;;
24157;SDS011;12316;50.904;4.200;2022-10-16T00:39:24;1.75;;;1.55;;
24157;SDS011;12316;50.904;4.200;2022-10-16T00:41:50;4.78;;;1.70;;
24157;SDS011;12316;50.904;4.200;2022-10-16T00:47:24;3.55;;;1.63;;
24157;SDS011;12316;50.904;4.200;2022-10-16T00:50:01;3.42;;;2.00;;
24157;SDS011;12316;50.904;4.200;2022-10-16T00:52:31;2.63;;;1.70;;
24157;SDS011;12316;50.904;4.200;2022-10-16T00:54:57;3.17;;;1.77;;
24157;SDS011;12316;50.904;4.200;2022-10-16T00:57:24;2.88;;;1.90;;
24157;SDS011;12316;50.904;4.200;2022-10-16T00:59:50;5.80;;;1.60;;
24157;SDS011;12316;50.904;4.200;2022-10-16T01:02:16;3.67;;;1.85;;
24157;SDS011;12316;50.904;4.200;2022-10-16T01:04:44;3.17;;;1.90;;
24157;SDS011;12316;50.904;4.200;2022-10-16T01:13:04;3.72;;;2.00;;
24157;SDS011;12316;50.904;4.200;2022-10-16T01:15:54;2.75;;;2.15;;
24157;SDS011;12316;50.904;4.200;2022-10-16T01:18:45;4.47;;;2.08;;
24157;SDS011;12316;50.904;4.200;2022-10-16T01:21:21;3.30;;;2.13;;
24157;SDS011;12316;50.904;4.200;2022-10-16T01:32:13;2.45;;;2.05;;
24157;SDS011;12316;50.904;4.200;2022-10-16T01:34:48;4.00;;;2.17;;
24157;SDS011;12316;50.904;4.200;2022-10-16T01:37:25;3.65;;;2.10;;
24157;SDS011;12316;50.904;4.200;2022-10-16T01:40:03;3.65;;;1.98;;
24157;SDS011;12316;50.904;4.200;2022-10-16T01:42:34;3.63;;;2.28;;
24157;SDS011;12316;50.904;4.200;2022-10-16T01:45:03;5.38;;;2.33;;
24157;SDS011;12316;50.904;4.200;2022-10-16T01:47:32;4.30;;;2.13;;
24157;SDS011;12316;50.904;4.200;2022-10-16T01:50:00;4.03;;;2.25;;
24157;SDS011;12316;50.904;4.200;2022-10-16T01:52:29;2.92;;;2.20;;
24157;SDS011;12316;50.904;4.200;2022-10-16T01:54:57;4.30;;;2.30;;
24157;SDS011;12316;50.904;4.200;2022-10-16T01:57:25;3.33;;;2.00;;
24157;SDS011;12316;50.904;4.200;2022-10-16T01:59:54;4.00;;;2.17;;
24157;SDS011;12316;50.904;4.200;2022-10-16T02:02:23;2.85;;;2.00;;
24157;SDS011;12316;50.904;4.200;2022-10-16T02:04:54;3.30;;;2.20;;
24157;SDS011;12316;50.904;4.200;2022-10-16T02:07:34;2.90;;;2.10;;
24157;SDS011;12316;50.904;4.200;2022-10-16T02:10:00;2.15;;;1.92;;
24157;SDS011;12316;50.904;4.200;2022-10-16T02:12:30;4.50;;;2.50;;
24157;SDS011;12316;50.904;4.200;2022-10-16T02:14:57;5.47;;;2.50;;
24157;SDS011;12316;50.904;4.200;2022-10-16T02:17:24;6.47;;;2.38;;
24157;SDS011;12316;50.904;4.200;2022-10-16T02:19:50;4.43;;;2.30;;
24157;SDS011;12316;50.904;4.200;2022-10-16T02:22:22;3.75;;;2.20;;
24157;SDS011;12316;50.904;4.200;2022-10-16T02:24:59;5.55;;;2.33;;
24157;SDS011;12316;50.904;4.200;2022-10-16T02:30:09;2.40;;;2.10;;
24157;SDS011;12316;50.904;4.200;2022-10-16T02:32:44;4.38;;;2.63;;
24157;SDS011;12316;50.904;4.200;2022-10-16T02:35:12;2.28;;;2.08;;
24157;SDS011;12316;50.904;4.200;2022-10-16T02:37:39;3.47;;;2.50;;
24157;SDS011;12316;50.904;4.200;2022-10-16T02:40:06;5.30;;;2.38;;
24157;SDS011;12316;50.904;4.200;2022-10-16T02:42:33;4.90;;;2.30;;
24157;SDS011;12316;50.904;4.200;2022-10-16T02:45:00;4.32;;;2.65;;
24157;SDS011;12316;50.904;4.200;2022-10-16T02:47:26;4.53;;;2.60;;
24157;SDS011;12316;50.904;4.200;2022-10-16T02:49:51;4.20;;;2.33;;
24157;SDS011;12316;50.904;4.200;2022-10-16T02:52:17;4.57;;;2.70;;
24157;SDS011;12316;50.904;4.200;2022-10-16T02:54:43;4.50;;;2.50;;
24157;SDS011;12316;50.904;4.200;2022-10-16T02:57:08;4.05;;;2.10;;
24157;SDS011;12316;50.904;4.200;2022-10-16T02:59:34;4.72;;;2.20;;
24157;SDS011;12316;50.904;4.200;2022-10-16T03:01:59;5.00;;;2.60;;
24157;SDS011;12316;50.904;4.200;2022-10-16T03:04:25;5.40;;;3.00;;
24157;SDS011;12316;50.904;4.200;2022-10-16T03:06:50;4.40;;;2.95;;
24157;SDS011;12316;50.904;4.200;2022-10-16T03:09:16;4.97;;;3.05;;
24157;SDS011;12316;50.904;4.200;2022-10-16T03:11:41;6.00;;;2.92;;
24157;SDS011;12316;50.904;4.200;2022-10-16T03:14:07;4.53;;;3.03;;
24157;SDS011;12316;50.904;4.200;2022-10-16T03:16:32;4.38;;;3.25;;
24157;SDS011;12316;50.904;4.200;2022-10-16T03:18:58;4.30;;;2.85;;
24157;SDS011;12316;50.904;4.200;2022-10-16T03:21:23;5.13;;;2.95;;
24157;SDS011;12316;50.904;4.200;2022-10-16T03:23:49;5.00;;;3.10;;
24157;SDS011;12316;50.904;4.200;2022-10-16T03:26:15;4.57;;;3.00;;
24157;SDS011;12316;50.904;4.200;2022-10-16T03:28:41;4.22;;;3.10;;
24157;SDS011;12316;50.904;4.200;2022-10-16T03:31:06;5.03;;;3.20;;
24157;SDS011;12316;50.904;4.200;2022-10-16T03:33:33;5.63;;;2.90;;
24157;SDS011;12316;50.904;4.200;2022-10-16T03:35:58;7.40;;;3.10;;
24157;SDS011;12316;50.904;4.200;2022-10-16T03:38:25;3.50;;;3.13;;
24157;SDS011;12316;50.904;4.200;2022-10-16T03:40:50;3.33;;;2.70;;
24157;SDS011;12316;50.904;4.200;2022-10-16T03:43:16;3.97;;;3.00;;
24157;SDS011;12316;50.904;4.200;2022-10-16T03:45:41;5.25;;;2.75;;
24157;SDS011;12316;50.904;4.200;2022-10-16T03:48:07;6.03;;;2.78;;
24157;SDS011;12316;50.904;4.200;2022-10-16T03:50:32;4.30;;;3.00;;
24157;SDS011;12316;50.904;4.200;2022-10-16T03:52:58;4.32;;;2.75;;
24157;SDS011;12316;50.904;4.200;2022-10-16T03:55:24;5.68;;;3.08;;
24157;SDS011;12316;50.904;4.200;2022-10-16T03:57:49;5.10;;;2.80;;
24157;SDS011;12316;50.904;4.200;2022-10-16T04:00:15;4.97;;;3.00;;
24157;SDS011;12316;50.904;4.200;2022-10-16T04:02:40;5.78;;;3.10;;
24157;SDS011;12316;50.904;4.200;2022-10-16T04:05:06;3.40;;;2.47;;
24157;SDS011;12316;50.904;4.200;2022-10-16T04:07:32;3.40;;;2.65;;
24157;SDS011;12316;50.904;4.200;2022-10-16T04:09:57;4.70;;;2.95;;
24157;SDS011;12316;50.904;4.200;2022-10-16T04:12:24;5.43;;;3.05;;
24157;SDS011;12316;50.904;4.200;2022-10-16T04:14:50;6.03;;;2.92;;
24157;SDS011;12316;50.904;4.200;2022-10-16T04:17:16;6.15;;;2.65;;
24157;SDS011;12316;50.904;4.200;2022-10-16T04:19:41;4.10;;;3.10;;
24157;SDS011;12316;50.904;4.200;2022-10-16T04:22:07;5.85;;;3.10;;
24157;SDS011;12316;50.904;4.200;2022-10-16T04:24:32;4.75;;;2.85;;
24157;SDS011;12316;50.904;4.200;2022-10-16T04:26:58;3.88;;;2.97;;
24157;SDS011;12316;50.904;4.200;2022-10-16T04:29:24;5.72;;;2.90;;
24157;SDS011;12316;50.904;4.200;2022-10-16T04:31:49;5.90;;;3.00;;
24157;SDS011;12316;50.904;4.200;2022-10-16T04:34:15;4.75;;;3.25;;
24157;SDS011;12316;50.904;4.200;2022-10-16T04:36:40;7.28;;;3.10;;
24157;SDS011;12316;50.904;4.200;2022-10-16T04:39:06;4.25;;;2.70;;
24157;SDS011;12316;50.904;4.200;2022-10-16T04:41:31;5.63;;;2.97;;
24157;SDS011;12316;50.904;4.200;2022-10-16T04:43:57;4.85;;;3.17;;
24157;SDS011;12316;50.904;4.200;2022-10-16T04:46:22;8.20;;;3.00;;
24157;SDS011;12316;50.904;4.200;2022-10-16T04:48:48;4.97;;;2.60;;
24157;SDS011;12316;50.904;4.200;2022-10-16T04:51:13;3.80;;;2.70;;
24157;SDS011;12316;50.904;4.200;2022-10-16T04:53:39;5.43;;;2.75;;
24157;SDS011;12316;50.904;4.200;2022-10-16T04:56:05;8.38;;;3.08;;
24157;SDS011;12316;50.904;4.200;2022-10-16T04:58:30;5.55;;;3.30;;
24157;SDS011;12316;50.904;4.200;2022-10-16T05:00:56;5.82;;;2.88;;
24157;SDS011;12316;50.904;4.200;2022-10-16T05:03:21;4.72;;;2.72;;
24157;SDS011;12316;50.904;4.200;2022-10-16T05:05:47;4.15;;;2.85;;
24157;SDS011;12316;50.904;4.200;2022-10-16T05:08:13;3.88;;;2.60;;
24157;SDS011;12316;50.904;4.200;2022-10-16T05:10:43;5.25;;;2.80;;
24157;SDS011;12316;50.904;4.200;2022-10-16T05:13:09;4.90;;;2.75;;
24157;SDS011;12316;50.904;4.200;2022-10-16T05:15:35;5.30;;;2.95;;
24157;SDS011;12316;50.904;4.200;2022-10-16T05:18:01;4.50;;;2.90;;
24157;SDS011;12316;50.904;4.200;2022-10-16T05:20:27;8.00;;;3.40;;
24157;SDS011;12316;50.904;4.200;2022-10-16T05:22:53;4.05;;;2.83;;
24157;SDS011;12316;50.904;4.200;2022-10-16T05:25:18;4.45;;;2.78;;
24157;SDS011;12316;50.904;4.200;2022-10-16T05:27:47;6.57;;;3.30;;
24157;SDS011;12316;50.904;4.200;2022-10-16T05:30:13;6.72;;;2.92;;
24157;SDS011;12316;50.904;4.200;2022-10-16T05:32:39;6.40;;;2.70;;
24157;SDS011;12316;50.904;4.200;2022-10-16T05:35:05;5.80;;;3.00;;
24157;SDS011;12316;50.904;4.200;2022-10-16T05:37:31;6.40;;;2.72;;
24157;SDS011;12316;50.904;4.200;2022-10-16T05:39:56;4.90;;;3.00;;
24157;SDS011;12316;50.904;4.200;2022-10-16T05:42:22;6.00;;;2.83;;
24157;SDS011;12316;50.904;4.200;2022-10-16T05:44:47;6.07;;;2.92;;
24157;SDS011;12316;50.904;4.200;2022-10-16T05:47:13;4.40;;;2.95;;
24157;SDS011;12316;50.904;4.200;2022-10-16T05:49:39;6.93;;;3.00;;
24157;SDS011;12316;50.904;4.200;2022-10-16T05:52:06;5.70;;;3.08;;
24157;SDS011;12316;50.904;4.200;2022-10-16T05:54:31;4.75;;;3.13;;
24157;SDS011;12316;50.904;4.200;2022-10-16T05:56:57;4.43;;;2.97;;
24157;SDS011;12316;50.904;4.200;2022-10-16T05:59:22;4.38;;;2.90;;
24157;SDS011;12316;50.904;4.200;2022-10-16T06:01:48;3.63;;;3.03;;
24157;SDS011;12316;50.904;4.200;2022-10-16T06:04:14;6.55;;;3.17;;
24157;SDS011;12316;50.904;4.200;2022-10-16T06:06:39;7.40;;;3.60;;
24157;SDS011;12316;50.904;4.200;2022-10-16T06:09:05;6.25;;;3.47;;
24157;SDS011;12316;50.904;4.200;2022-10-16T06:11:32;5.45;;;3.50;;
24157;SDS011;12316;50.904;4.200;2022-10-16T06:13:59;5.70;;;3.50;;
24157;SDS011;12316;50.904;4.200;2022-10-16T06:16:27;10.52;;;3.78;;
24157;SDS011;12316;50.904;4.200;2022-10-16T06:18:54;12.10;;;5.22;;
24157;SDS011;12316;50.904;4.200;2022-10-16T06:21:25;5.07;;;3.22;;
24157;SDS011;12316;50.904;4.200;2022-10-16T06:23:51;6.32;;;3.65;;
24157;SDS011;12316;50.904;4.200;2022-10-16T06:26:18;7.25;;;3.55;;
24157;SDS011;12316;50.904;4.200;2022-10-16T06:28:45;6.30;;;3.22;;
24157;SDS011;12316;50.904;4.200;2022-10-16T06:31:12;9.27;;;3.63;;
24157;SDS011;12316;50.904;4.200;2022-10-16T06:33:38;7.28;;;3.60;;
24157;SDS011;12316;50.904;4.200;2022-10-16T06:36:10;8.23;;;3.47;;
24157;SDS011;12316;50.904;4.200;2022-10-16T06:38:38;5.35;;;3.70;;
24157;SDS011;12316;50.904;4.200;2022-10-16T06:41:04;4.97;;;3.20;;
24157;SDS011;12316;50.904;4.200;2022-10-16T06:43:31;7.32;;;3.50;;
24157;SDS011;12316;50.904;4.200;2022-10-16T06:45:57;6.38;;;3.33;;
24157;SDS011;12316;50.904;4.200;2022-10-16T06:48:24;4.63;;;3.15;;
24157;SDS011;12316;50.904;4.200;2022-10-16T06:51:03;3.53;;;2.83;;
24157;SDS011;12316;50.904;4.200;2022-10-16T06:53:38;6.40;;;3.05;;
24157;SDS011;12316;50.904;4.200;2022-10-16T06:56:09;6.22;;;2.92;;
24157;SDS011;12316;50.904;4.200;2022-10-16T06:58:35;6.35;;;2.80;;
24157;SDS011;12316;50.904;4.200;2022-10-16T07:01:02;5.28;;;3.13;;
24157;SDS011;12316;50.904;4.200;2022-10-16T07:03:28;6.43;;;3.20;;
24157;SDS011;12316;50.904;4.200;2022-10-16T07:05:54;5.53;;;3.00;;
24157;SDS011;12316;50.904;4.200;2022-10-16T07:08:19;6.57;;;3.00;;
24157;SDS011;12316;50.904;4.200;2022-10-16T07:10:45;7.50;;;2.78;;
24157;SDS011;12316;50.904;4.200;2022-10-16T07:13:10;5.53;;;3.03;;
24157;SDS011;12316;50.904;4.200;2022-10-16T07:15:39;5.30;;;2.72;;
24157;SDS011;12316;50.904;4.200;2022-10-16T07:18:06;4.80;;;2.50;;
24157;SDS011;12316;50.904;4.200;2022-10-16T07:20:32;4.93;;;3.15;;
24157;SDS011;12316;50.904;4.200;2022-10-16T07:22:57;4.47;;;2.75;;
24157;SDS011;12316;50.904;4.200;2022-10-16T07:25:23;5.93;;;2.40;;
24157;SDS011;12316;50.904;4.200;2022-10-16T07:27:49;7.78;;;2.90;;
24157;SDS011;12316;50.904;4.200;2022-10-16T07:30:14;6.05;;;2.55;;
24157;SDS011;12316;50.904;4.200;2022-10-16T07:32:40;6.60;;;2.65;;
24157;SDS011;12316;50.904;4.200;2022-10-16T07:35:06;3.33;;;2.30;;
24157;SDS011;12316;50.904;4.200;2022-10-16T07:37:32;4.85;;;2.67;;
24157;SDS011;12316;50.904;4.200;2022-10-16T07:39:57;6.10;;;2.25;;
24157;SDS011;12316;50.904;4.200;2022-10-16T07:42:23;6.15;;;2.40;;
24157;SDS011;12316;50.904;4.200;2022-10-16T07:44:48;7.72;;;2.45;;
24157;SDS011;12316;50.904;4.200;2022-10-16T07:47:14;4.57;;;2.58;;
24157;SDS011;12316;50.904;4.200;2022-10-16T07:49:40;6.40;;;2.70;;
24157;SDS011;12316;50.904;4.200;2022-10-16T07:52:05;3.85;;;2.42;;
24157;SDS011;12316;50.904;4.200;2022-10-16T07:54:31;5.13;;;2.40;;
24157;SDS011;12316;50.904;4.200;2022-10-16T07:56:56;5.07;;;2.55;;
24157;SDS011;12316;50.904;4.200;2022-10-16T07:59:22;6.93;;;2.40;;
24157;SDS011;12316;50.904;4.200;2022-10-16T08:01:48;3.58;;;1.95;;
24157;SDS011;12316;50.904;4.200;2022-10-16T08:04:14;5.22;;;2.28;;
24157;SDS011;12316;50.904;4.200;2022-10-16T08:06:40;3.20;;;1.90;;
24157;SDS011;12316;50.904;4.200;2022-10-16T08:09:07;5.95;;;1.92;;
24157;SDS011;12316;50.904;4.200;2022-10-16T08:11:33;5.00;;;1.95;;
24157;SDS011;12316;50.904;4.200;2022-10-16T08:13:59;6.72;;;2.00;;
24157;SDS011;12316;50.904;4.200;2022-10-16T08:16:25;5.90;;;1.80;;
24157;SDS011;12316;50.904;4.200;2022-10-16T08:18:51;7.57;;;1.90;;
24157;SDS011;12316;50.904;4.200;2022-10-16T08:21:17;6.18;;;2.05;;
24157;SDS011;12316;50.904;4.200;2022-10-16T08:23:44;5.10;;;1.70;;
24157;SDS011;12316;50.904;4.200;2022-10-16T08:26:11;5.57;;;1.98;;
24157;SDS011;12316;50.904;4.200;2022-10-16T08:28:38;4.38;;;1.73;;
24157;SDS011;12316;50.904;4.200;2022-10-16T08:31:11;4.70;;;1.40;;
24157;SDS011;12316;50.904;4.200;2022-10-16T08:33:38;5.57;;;1.65;;
24157;SDS011;12316;50.904;4.200;2022-10-16T08:36:06;5.82;;;1.73;;
24157;SDS011;12316;50.904;4.200;2022-10-16T08:38:32;5.70;;;1.95;;
24157;SDS011;12316;50.904;4.200;2022-10-16T08:41:08;5.88;;;1.90;;
24157;SDS011;12316;50.904;4.200;2022-10-16T08:49:20;4.68;;;1.70;;
24157;SDS011;12316;50.904;4.200;2022-10-16T08:51:45;5.05;;;2.08;;
24157;SDS011;12316;50.904;4.200;2022-10-16T08:57:21;5.22;;;1.80;;
24157;SDS011;12316;50.904;4.200;2022-10-16T08:59:48;4.85;;;1.73;;
24157;SDS011;12316;50.904;4.200;2022-10-16T09:21:51;8.25;;;2.97;;
24157;SDS011;12316;50.904;4.200;2022-10-16T09:24:19;5.40;;;1.80;;
24157;SDS011;12316;50.904;4.200;2022-10-16T09:26:46;7.68;;;1.52;;
24157;SDS011;12316;50.904;4.200;2022-10-16T09:29:13;7.40;;;1.73;;
24157;SDS011;12316;50.904;4.200;2022-10-16T09:31:40;5.78;;;1.48;;
24157;SDS011;12316;50.904;4.200;2022-10-16T09:34:08;5.75;;;1.48;;
24157;SDS011;12316;50.904;4.200;2022-10-16T09:36:55;5.00;;;1.40;;
24157;SDS011;12316;50.904;4.200;2022-10-16T09:39:23;5.25;;;1.42;;
24157;SDS011;12316;50.904;4.200;2022-10-16T09:41:49;5.35;;;1.55;;
24157;SDS011;12316;50.904;4.200;2022-10-16T09:44:19;5.32;;;1.45;;
24157;SDS011;12316;50.904;4.200;2022-10-16T09:47:04;6.75;;;1.70;;
24157;SDS011;12316;50.904;4.200;2022-10-16T09:52:03;7.63;;;1.60;;
24157;SDS011;12316;50.904;4.200;2022-10-16T09:54:30;5.97;;;1.42;;
24157;SDS011;12316;50.904;4.200;2022-10-16T09:57:06;5.70;;;1.50;;
24157;SDS011;12316;50.904;4.200;2022-10-16T09:59:44;4.75;;;1.40;;
24157;SDS011;12316;50.904;4.200;2022-10-16T10:02:11;5.57;;;1.65;;
24157;SDS011;12316;50.904;4.200;2022-10-16T10:04:41;5.40;;;1.30;;
24157;SDS011;12316;50.904;4.200;2022-10-16T10:09:44;5.45;;;1.40;;
24157;SDS011;12316;50.904;4.200;2022-10-16T10:14:57;5.82;;;1.55;;
24157;SDS011;12316;50.904;4.200;2022-10-16T10:17:29;7.22;;;1.52;;
24157;SDS011;12316;50.904;4.200;2022-10-16T10:22:38;5.60;;;1.50;;
24157;SDS011;12316;50.904;4.200;2022-10-16T10:36:15;6.22;;;1.27;;
24157;SDS011;12316;50.904;4.200;2022-10-16T10:38:51;7.40;;;1.50;;
24157;SDS011;12316;50.904;4.200;2022-10-16T10:57:30;5.82;;;1.58;;
24157;SDS011;12316;50.904;4.200;2022-10-16T11:03:32;4.05;;;1.35;;
24157;SDS011;12316;50.904;4.200;2022-10-16T11:08:00;5.35;;;1.23;;
24157;SDS011;12316;50.904;4.200;2022-10-16T11:10:38;4.82;;;1.30;;
24157;SDS011;12316;50.904;4.200;2022-10-16T11:15:54;5.25;;;1.25;;
24157;SDS011;12316;50.904;4.200;2022-10-16T11:18:31;5.32;;;1.40;;
24157;SDS011;12316;50.904;4.200;2022-10-16T11:21:12;3.22;;;1.13;;
24157;SDS011;12316;50.904;4.200;2022-10-16T11:23:43;4.40;;;1.20;;
24157;SDS011;12316;50.904;4.200;2022-10-16T11:26:13;3.75;;;1.10;;
24157;SDS011;12316;50.904;4.200;2022-10-16T11:28:47;6.68;;;1.30;;
24157;SDS011;12316;50.904;4.200;2022-10-16T11:33:57;5.13;;;1.40;;
24157;SDS011;12316;50.904;4.200;2022-10-16T11:39:29;6.07;;;1.20;;
24157;SDS011;12316;50.904;4.200;2022-10-16T11:42:11;5.38;;;1.00;;
24157;SDS011;12316;50.904;4.200;2022-10-16T11:50:26;5.65;;;1.30;;
24157;SDS011;12316;50.904;4.200;2022-10-16T11:55:52;4.38;;;0.95;;
24157;SDS011;12316;50.904;4.200;2022-10-16T12:06:40;4.15;;;0.93;;
24157;SDS011;12316;50.904;4.200;2022-10-16T12:09:14;3.03;;;0.90;;
24157;SDS011;12316;50.904;4.200;2022-10-16T12:12:00;3.65;;;0.85;;
24157;SDS011;12316;50.904;4.200;2022-10-16T12:17:02;5.88;;;1.08;;
24157;SDS011;12316;50.904;4.200;2022-10-16T12:19:57;2.83;;;0.80;;
24157;SDS011;12316;50.904;4.200;2022-10-16T12:22:24;2.20;;;0.88;;
24157;SDS011;12316;50.904;4.200;2022-10-16T12:24:53;5.13;;;1.10;;
24157;SDS011;12316;50.904;4.200;2022-10-16T12:27:22;5.65;;;1.85;;
24157;SDS011;12316;50.904;4.200;2022-10-16T12:29:56;4.75;;;1.27;;
24157;SDS011;12316;50.904;4.200;2022-10-16T12:32:37;3.72;;;1.08;;
24157;SDS011;12316;50.904;4.200;2022-10-16T12:35:04;5.78;;;1.35;;
24157;SDS011;12316;50.904;4.200;2022-10-16T12:37:41;3.97;;;1.08;;
24157;SDS011;12316;50.904;4.200;2022-10-16T12:40:25;3.20;;;1.00;;
24157;SDS011;12316;50.904;4.200;2022-10-16T12:42:54;3.88;;;1.00;;
24157;SDS011;12316;50.904;4.200;2022-10-16T12:47:56;3.60;;;1.13;;
24157;SDS011;12316;50.904;4.200;2022-10-16T12:53:00;8.82;;;2.63;;
24157;SDS011;12316;50.904;4.200;2022-10-16T12:55:29;2.85;;;1.38;;
24157;SDS011;12316;50.904;4.200;2022-10-16T12:58:16;2.80;;;0.90;;
24157;SDS011;12316;50.904;4.200;2022-10-16T13:06:47;3.80;;;1.00;;
24157;SDS011;12316;50.904;4.200;2022-10-16T13:09:22;3.45;;;1.35;;
24157;SDS011;12316;50.904;4.200;2022-10-16T13:12:24;3.22;;;1.15;;
24157;SDS011;12316;50.904;4.200;2022-10-16T13:17:57;3.03;;;1.20;;
24157;SDS011;12316;50.904;4.200;2022-10-16T13:20:33;3.63;;;1.10;;
24157;SDS011;12316;50.904;4.200;2022-10-16T13:28:40;3.20;;;0.90;;
24157;SDS011;12316;50.904;4.200;2022-10-16T13:31:09;2.80;;;1.10;;
24157;SDS011;12316;50.904;4.200;2022-10-16T13:33:42;2.25;;;0.73;;
24157;SDS011;12316;50.904;4.200;2022-10-16T13:36:19;2.95;;;0.70;;
24157;SDS011;12316;50.904;4.200;2022-10-16T13:41:45;3.55;;;0.70;;
24157;SDS011;12316;50.904;4.200;2022-10-16T13:44:12;3.55;;;1.02;;
24157;SDS011;12316;50.904;4.200;2022-10-16T13:46:42;1.58;;;0.88;;
24157;SDS011;12316;50.904;4.200;2022-10-16T13:49:15;4.03;;;1.20;;
24157;SDS011;12316;50.904;4.200;2022-10-16T13:51:53;3.92;;;1.23;;
24157;SDS011;12316;50.904;4.200;2022-10-16T13:54:28;2.83;;;1.00;;
24157;SDS011;12316;50.904;4.200;2022-10-16T13:56:54;2.50;;;0.73;;
24157;SDS011;12316;50.904;4.200;2022-10-16T13:59:27;2.85;;;0.88;;
24157;SDS011;12316;50.904;4.200;2022-10-16T14:01:58;2.63;;;1.00;;
24157;SDS011;12316;50.904;4.200;2022-10-16T14:04:31;3.10;;;1.00;;
24157;SDS011;12316;50.904;4.200;2022-10-16T14:06:58;3.88;;;1.10;;
24157;SDS011;12316;50.904;4.200;2022-10-16T14:09:24;4.43;;;1.15;;
24157;SDS011;12316;50.904;4.200;2022-10-16T14:12:02;1.77;;;0.90;;
24157;SDS011;12316;50.904;4.200;2022-10-16T14:14:42;3.00;;;1.10;;
24157;SDS011;12316;50.904;4.200;2022-10-16T14:17:14;4.78;;;1.13;;
24157;SDS011;12316;50.904;4.200;2022-10-16T14:20:00;3.42;;;1.13;;
24157;SDS011;12316;50.904;4.200;2022-10-16T14:22:30;4.82;;;1.17;;
24157;SDS011;12316;50.904;4.200;2022-10-16T14:27:45;2.83;;;1.15;;
24157;SDS011;12316;50.904;4.200;2022-10-16T14:30:25;5.07;;;1.20;;
24157;SDS011;12316;50.904;4.200;2022-10-16T14:32:58;2.92;;;1.00;;
24157;SDS011;12316;50.904;4.200;2022-10-16T14:35:29;5.65;;;1.20;;
24157;SDS011;12316;50.904;4.200;2022-10-16T14:37:57;1.83;;;1.08;;
24157;SDS011;12316;50.904;4.200;2022-10-16T14:40:31;4.32;;;1.50;;
24157;SDS011;12316;50.904;4.200;2022-10-16T14:42:59;3.25;;;1.00;;
24157;SDS011;12316;50.904;4.200;2022-10-16T14:45:30;4.28;;;1.25;;
24157;SDS011;12316;50.904;4.200;2022-10-16T14:47:59;3.05;;;1.40;;
24157;SDS011;12316;50.904;4.200;2022-10-16T14:50:27;2.92;;;0.90;;
24157;SDS011;12316;50.904;4.200;2022-10-16T14:52:53;2.80;;;1.08;;
24157;SDS011;12316;50.904;4.200;2022-10-16T14:55:19;3.78;;;1.13;;
24157;SDS011;12316;50.904;4.200;2022-10-16T14:57:45;4.22;;;1.30;;
24157;SDS011;12316;50.904;4.200;2022-10-16T15:00:15;3.97;;;1.30;;
24157;SDS011;12316;50.904;4.200;2022-10-16T15:02:47;3.85;;;1.30;;
24157;SDS011;12316;50.904;4.200;2022-10-16T15:05:16;3.67;;;1.33;;
24157;SDS011;12316;50.904;4.200;2022-10-16T15:07:43;2.75;;;1.00;;
24157;SDS011;12316;50.904;4.200;2022-10-16T15:10:10;3.10;;;1.00;;
24157;SDS011;12316;50.904;4.200;2022-10-16T15:12:37;2.78;;;1.00;;
24157;SDS011;12316;50.904;4.200;2022-10-16T15:15:48;2.90;;;1.05;;
24157;SDS011;12316;50.904;4.200;2022-10-16T15:17:49;2.08;;;1.05;;
24157;SDS011;12316;50.904;4.200;2022-10-16T15:20:18;4.45;;;1.27;;
24157;SDS011;12316;50.904;4.200;2022-10-16T15:22:44;2.15;;;1.05;;
24157;SDS011;12316;50.904;4.200;2022-10-16T15:25:33;1.77;;;0.90;;
24157;SDS011;12316;50.904;4.200;2022-10-16T15:27:57;3.25;;;1.00;;
24157;SDS011;12316;50.904;4.200;2022-10-16T15:30:23;2.53;;;1.00;;
24157;SDS011;12316;50.904;4.200;2022-10-16T15:32:49;2.05;;;0.98;;
24157;SDS011;12316;50.904;4.200;2022-10-16T15:35:14;2.78;;;1.20;;
24157;SDS011;12316;50.904;4.200;2022-10-16T15:37:40;2.92;;;1.35;;
24157;SDS011;12316;50.904;4.200;2022-10-16T15:40:06;2.30;;;1.20;;
24157;SDS011;12316;50.904;4.200;2022-10-16T15:42:34;5.45;;;1.20;;
24157;SDS011;12316;50.904;4.200;2022-10-16T15:45:00;3.17;;;1.27;;
24157;SDS011;12316;50.904;4.200;2022-10-16T15:47:25;5.97;;;1.40;;
24157;SDS011;12316;50.904;4.200;2022-10-16T15:49:51;6.18;;;1.92;;
24157;SDS011;12316;50.904;4.200;2022-10-16T15:52:16;3.85;;;1.45;;
24157;SDS011;12316;50.904;4.200;2022-10-16T15:54:42;3.25;;;1.20;;
24157;SDS011;12316;50.904;4.200;2022-10-16T15:57:08;3.70;;;1.30;;
24157;SDS011;12316;50.904;4.200;2022-10-16T15:59:34;4.05;;;1.40;;
24157;SDS011;12316;50.904;4.200;2022-10-16T16:01:59;4.07;;;1.20;;
24157;SDS011;12316;50.904;4.200;2022-10-16T16:04:25;2.97;;;1.50;;
24157;SDS011;12316;50.904;4.200;2022-10-16T16:06:51;3.72;;;1.58;;
24157;SDS011;12316;50.904;4.200;2022-10-16T16:09:16;5.25;;;1.77;;
24157;SDS011;12316;50.904;4.200;2022-10-16T16:11:42;5.40;;;1.83;;
24157;SDS011;12316;50.904;4.200;2022-10-16T16:14:10;6.20;;;2.00;;
24157;SDS011;12316;50.904;4.200;2022-10-16T16:16:38;4.88;;;1.80;;
24157;SDS011;12316;50.904;4.200;2022-10-16T16:19:04;3.80;;;1.70;;
24157;SDS011;12316;50.904;4.200;2022-10-16T16:21:32;4.55;;;2.03;;
24157;SDS011;12316;50.904;4.200;2022-10-16T16:23:58;5.68;;;2.15;;
24157;SDS011;12316;50.904;4.200;2022-10-16T16:26:25;5.55;;;1.95;;
24157;SDS011;12316;50.904;4.200;2022-10-16T16:28:54;10.02;;;2.08;;
24157;SDS011;12316;50.904;4.200;2022-10-16T16:31:23;3.30;;;1.73;;
24157;SDS011;12316;50.904;4.200;2022-10-16T16:33:50;5.78;;;2.20;;
24157;SDS011;12316;50.904;4.200;2022-10-16T16:36:16;6.32;;;3.60;;
24157;SDS011;12316;50.904;4.200;2022-10-16T16:38:45;6.85;;;3.72;;
24157;SDS011;12316;50.904;4.200;2022-10-16T16:41:12;6.97;;;3.55;;
24157;SDS011;12316;50.904;4.200;2022-10-16T16:43:39;5.40;;;3.50;;
24157;SDS011;12316;50.904;4.200;2022-10-16T16:46:04;5.40;;;3.10;;
24157;SDS011;12316;50.904;4.200;2022-10-16T16:48:31;5.30;;;2.85;;
24157;SDS011;12316;50.904;4.200;2022-10-16T16:51:02;6.30;;;3.40;;
24157;SDS011;12316;50.904;4.200;2022-10-16T16:53:36;5.90;;;3.28;;
24157;SDS011;12316;50.904;4.200;2022-10-16T16:56:02;5.00;;;2.92;;
24157;SDS011;12316;50.904;4.200;2022-10-16T16:58:29;7.00;;;3.13;;
24157;SDS011;12316;50.904;4.200;2022-10-16T17:00:54;6.72;;;3.00;;
24157;SDS011;12316;50.904;4.200;2022-10-16T17:03:20;6.20;;;2.97;;
24157;SDS011;12316;50.904;4.200;2022-10-16T17:06:02;5.97;;;3.42;;
24157;SDS011;12316;50.904;4.200;2022-10-16T17:08:31;7.68;;;5.25;;
24157;SDS011;12316;50.904;4.200;2022-10-16T17:10:57;9.15;;;3.10;;
24157;SDS011;12316;50.904;4.200;2022-10-16T17:13:23;5.38;;;3.30;;
24157;SDS011;12316;50.904;4.200;2022-10-16T17:15:51;7.10;;;3.42;;
24157;SDS011;12316;50.904;4.200;2022-10-16T17:18:18;7.97;;;3.10;;
24157;SDS011;12316;50.904;4.200;2022-10-16T17:20:44;7.78;;;3.17;;